sensor_id;sensor_type;location;lat;lon;timestamp;pressure;altitude;pressure_sealevel;temperature;humidity
42297;BME280;72430;47.456;19.016;2023-12-20T00:00:33;100562.06;;;0.21;91.99
42297;BME280;72430;47.456;19.016;2023-12-20T00:03:35;100555.97;;;0.40;90.17
42297;BME280;72430;47.456;19.016;2023-12-20T00:06:43;100553.13;;;0.24;92.44
42297;BME280;72430;47.456;19.016;2023-12-20T00:09:45;100554.84;;;0.25;91.64
42297;BME280;72430;47.456;19.016;2023-12-20T00:12:47;100545.09;;;0.25;92.20
42297;BME280;72430;47.456;19.016;2023-12-20T00:15:49;100542.25;;;0.30;92.20
42297;BME280;72430;47.456;19.016;2023-12-20T00:18:51;100552.97;;;0.48;91.08
42297;BME280;72430;47.456;19.016;2023-12-20T00:21:53;100542.91;;;0.35;91.33
42297;BME280;72430;47.456;19.016;2023-12-20T00:24:55;100530.03;;;0.47;91.00
42297;BME280;72430;47.456;19.016;2023-12-20T00:27:56;100527.47;;;0.45;91.49
42297;BME280;72430;47.456;19.016;2023-12-20T00:30:58;100525.63;;;0.47;92.25
42297;BME280;72430;47.456;19.016;2023-12-20T00:34:00;100520.03;;;0.53;91.12
42297;BME280;72430;47.456;19.016;2023-12-20T00:37:02;100503.66;;;0.64;90.14
42297;BME280;72430;47.456;19.016;2023-12-20T00:40:05;100510.72;;;0.45;91.19
42297;BME280;72430;47.456;19.016;2023-12-20T00:43:07;100495.97;;;0.39;91.39
42297;BME280;72430;47.456;19.016;2023-12-20T00:46:09;100496.31;;;0.31;91.94
42297;BME280;72430;47.456;19.016;2023-12-20T00:49:11;100493.22;;;0.40;92.15
42297;BME280;72430;47.456;19.016;2023-12-20T00:52:13;100483.25;;;0.26;93.00
42297;BME280;72430;47.456;19.016;2023-12-20T00:55:15;100478.81;;;0.48;91.36
42297;BME280;72430;47.456;19.016;2023-12-20T00:58:17;100481.75;;;0.42;91.80
42297;BME280;72430;47.456;19.016;2023-12-20T01:01:19;100475.63;;;0.39;92.06
42297;BME280;72430;47.456;19.016;2023-12-20T01:04:21;100473.19;;;0.35;93.15
42297;BME280;72430;47.456;19.016;2023-12-20T01:07:23;100470.75;;;0.30;93.37
42297;BME280;72430;47.456;19.016;2023-12-20T01:10:25;100467.13;;;0.33;92.56
42297;BME280;72430;47.456;19.016;2023-12-20T01:13:29;100461.44;;;0.40;92.67
42297;BME280;72430;47.456;19.016;2023-12-20T01:16:31;100464.25;;;0.37;92.46
42297;BME280;72430;47.456;19.016;2023-12-20T01:19:33;100450.03;;;0.40;92.96
42297;BME280;72430;47.456;19.016;2023-12-20T01:22:35;100451.78;;;0.39;92.53
42297;BME280;72430;47.456;19.016;2023-12-20T01:25:37;100436.63;;;0.43;92.57
42297;BME280;72430;47.456;19.016;2023-12-20T01:28:39;100436.72;;;0.42;92.31
42297;BME280;72430;47.456;19.016;2023-12-20T01:31:41;100437.97;;;0.52;90.97
42297;BME280;72430;47.456;19.016;2023-12-20T01:34:42;100424.75;;;0.52;91.20
42297;BME280;72430;47.456;19.016;2023-12-20T01:37:45;100419.22;;;0.37;91.79
42297;BME280;72430;47.456;19.016;2023-12-20T01:40:47;100423.03;;;0.51;91.31
42297;BME280;72430;47.456;19.016;2023-12-20T01:43:50;100411.66;;;0.49;91.55
42297;BME280;72430;47.456;19.016;2023-12-20T01:46:52;100407.72;;;0.58;90.19
42297;BME280;72430;47.456;19.016;2023-12-20T01:49:55;100414.44;;;0.46;90.82
42297;BME280;72430;47.456;19.016;2023-12-20T01:53:01;100406.34;;;0.49;91.14
42297;BME280;72430;47.456;19.016;2023-12-20T01:56:04;100396.88;;;0.43;90.52
42297;BME280;72430;47.456;19.016;2023-12-20T01:59:07;100383.50;;;0.46;90.89
42297;BME280;72430;47.456;19.016;2023-12-20T02:02:11;100374.84;;;0.43;89.96
42297;BME280;72430;47.456;19.016;2023-12-20T02:05:14;100372.13;;;0.44;89.85
42297;BME280;72430;47.456;19.016;2023-12-20T02:08:16;100358.69;;;0.49;89.97
42297;BME280;72430;47.456;19.016;2023-12-20T02:11:18;100353.50;;;0.46;90.97
42297;BME280;72430;47.456;19.016;2023-12-20T02:14:20;100353.31;;;0.50;90.09
42297;BME280;72430;47.456;19.016;2023-12-20T02:17:22;100361.47;;;0.26;90.42
42297;BME280;72430;47.456;19.016;2023-12-20T02:20:24;100349.44;;;0.38;90.41
42297;BME280;72430;47.456;19.016;2023-12-20T02:23:26;100345.78;;;0.22;91.48
42297;BME280;72430;47.456;19.016;2023-12-20T02:26:28;100344.94;;;0.21;90.93
42297;BME280;72430;47.456;19.016;2023-12-20T02:29:30;100341.50;;;0.19;92.15
42297;BME280;72430;47.456;19.016;2023-12-20T02:32:32;100340.91;;;0.32;91.41
42297;BME280;72430;47.456;19.016;2023-12-20T02:35:34;100333.50;;;0.40;90.23
42297;BME280;72430;47.456;19.016;2023-12-20T02:38:36;100339.44;;;0.26;90.51
42297;BME280;72430;47.456;19.016;2023-12-20T02:41:38;100331.91;;;0.17;91.84
42297;BME280;72430;47.456;19.016;2023-12-20T02:44:40;100330.72;;;0.24;91.63
42297;BME280;72430;47.456;19.016;2023-12-20T02:47:41;100319.25;;;0.23;91.84
42297;BME280;72430;47.456;19.016;2023-12-20T02:50:46;100316.19;;;0.13;91.33
42297;BME280;72430;47.456;19.016;2023-12-20T02:53:48;100310.09;;;0.11;92.29
42297;BME280;72430;47.456;19.016;2023-12-20T02:56:50;100300.31;;;0.13;92.83
42297;BME280;72430;47.456;19.016;2023-12-20T02:59:52;100293.78;;;0.02;92.76
42297;BME280;72430;47.456;19.016;2023-12-20T03:02:53;100303.59;;;0.19;92.30
42297;BME280;72430;47.456;19.016;2023-12-20T03:05:55;100303.38;;;0.04;92.22
42297;BME280;72430;47.456;19.016;2023-12-20T03:08:57;100295.41;;;0.23;92.14
42297;BME280;72430;47.456;19.016;2023-12-20T03:11:59;100307.53;;;0.10;91.95
42297;BME280;72430;47.456;19.016;2023-12-20T03:15:01;100303.00;;;0.31;91.60
42297;BME280;72430;47.456;19.016;2023-12-20T03:18:03;100295.72;;;0.17;91.87
42297;BME280;72430;47.456;19.016;2023-12-20T03:21:05;100296.38;;;0.22;91.92
42297;BME280;72430;47.456;19.016;2023-12-20T03:24:07;100296.84;;;0.11;92.18
42297;BME280;72430;47.456;19.016;2023-12-20T03:27:09;100308.19;;;0.15;92.18
42297;BME280;72430;47.456;19.016;2023-12-20T03:30:11;100297.66;;;0.13;91.92
42297;BME280;72430;47.456;19.016;2023-12-20T03:33:13;100304.00;;;0.09;93.26
42297;BME280;72430;47.456;19.016;2023-12-20T03:36:15;100298.44;;;0.16;92.04
42297;BME280;72430;47.456;19.016;2023-12-20T03:39:16;100304.19;;;0.06;93.59
42297;BME280;72430;47.456;19.016;2023-12-20T03:42:18;100301.44;;;0.27;92.23
42297;BME280;72430;47.456;19.016;2023-12-20T03:45:20;100298.44;;;-0.04;93.07
42297;BME280;72430;47.456;19.016;2023-12-20T03:48:22;100300.00;;;0.20;92.30
42297;BME280;72430;47.456;19.016;2023-12-20T03:51:24;100304.88;;;0.10;91.91
42297;BME280;72430;47.456;19.016;2023-12-20T03:54:25;100303.44;;;0.03;92.15
42297;BME280;72430;47.456;19.016;2023-12-20T03:57:27;100289.13;;;0.26;91.98
42297;BME280;72430;47.456;19.016;2023-12-20T04:00:29;100287.53;;;0.22;92.24
42297;BME280;72430;47.456;19.016;2023-12-20T04:03:31;100291.34;;;0.16;91.73
42297;BME280;72430;47.456;19.016;2023-12-20T04:06:32;100284.41;;;0.33;91.49
42297;BME280;72430;47.456;19.016;2023-12-20T04:09:34;100270.66;;;0.05;92.95
42297;BME280;72430;47.456;19.016;2023-12-20T04:12:36;100271.97;;;0.16;91.87
42297;BME280;72430;47.456;19.016;2023-12-20T04:15:38;100275.81;;;0.28;91.72
42297;BME280;72430;47.456;19.016;2023-12-20T04:18:40;100269.66;;;0.08;91.00
42297;BME280;72430;47.456;19.016;2023-12-20T04:21:42;100272.19;;;0.11;91.16
42297;BME280;72430;47.456;19.016;2023-12-20T04:24:44;100273.75;;;-0.04;91.55
42297;BME280;72430;47.456;19.016;2023-12-20T04:27:46;100271.25;;;0.12;92.05
42297;BME280;72430;47.456;19.016;2023-12-20T04:30:49;100259.00;;;0.09;92.14
42297;BME280;72430;47.456;19.016;2023-12-20T04:33:51;100254.38;;;-0.05;92.06
42297;BME280;72430;47.456;19.016;2023-12-20T04:36:53;100248.88;;;0.00;92.63
42297;BME280;72430;47.456;19.016;2023-12-20T04:39:55;100249.00;;;0.16;90.84
42297;BME280;72430;47.456;19.016;2023-12-20T04:42:57;100236.78;;;-0.06;91.09
42297;BME280;72430;47.456;19.016;2023-12-20T04:45:59;100240.72;;;-0.15;91.78
42297;BME280;72430;47.456;19.016;2023-12-20T04:49:01;100247.38;;;-0.06;92.33
42297;BME280;72430;47.456;19.016;2023-12-20T04:52:03;100230.84;;;0.08;91.77
42297;BME280;72430;47.456;19.016;2023-12-20T04:55:05;100229.50;;;-0.20;93.28
42297;BME280;72430;47.456;19.016;2023-12-20T04:58:07;100217.19;;;-0.21;92.83
42297;BME280;72430;47.456;19.016;2023-12-20T05:01:09;100201.97;;;-0.16;92.28
42297;BME280;72430;47.456;19.016;2023-12-20T05:04:11;100193.72;;;-0.09;91.98
42297;BME280;72430;47.456;19.016;2023-12-20T05:07:13;100196.91;;;-0.20;93.37
42297;BME280;72430;47.456;19.016;2023-12-20T05:10:15;100186.88;;;-0.14;92.89
42297;BME280;72430;47.456;19.016;2023-12-20T05:13:17;100194.44;;;-0.25;92.11
42297;BME280;72430;47.456;19.016;2023-12-20T05:16:19;100175.34;;;-0.12;92.86
42297;BME280;72430;47.456;19.016;2023-12-20T05:19:22;100193.09;;;-0.15;93.08
42297;BME280;72430;47.456;19.016;2023-12-20T05:22:25;100180.72;;;-0.14;92.54
42297;BME280;72430;47.456;19.016;2023-12-20T05:25:27;100170.91;;;-0.12;92.39
42297;BME280;72430;47.456;19.016;2023-12-20T05:28:29;100173.22;;;-0.23;93.48
42297;BME280;72430;47.456;19.016;2023-12-20T05:31:32;100197.03;;;-0.23;93.69
42297;BME280;72430;47.456;19.016;2023-12-20T05:34:33;100211.56;;;-0.13;92.44
42297;BME280;72430;47.456;19.016;2023-12-20T05:37:35;100216.25;;;-0.20;93.47
42297;BME280;72430;47.456;19.016;2023-12-20T05:40:37;100223.78;;;-0.30;92.91
42297;BME280;72430;47.456;19.016;2023-12-20T05:43:39;100214.84;;;-0.27;93.85
42297;BME280;72430;47.456;19.016;2023-12-20T05:46:41;100203.78;;;-0.35;93.58
42297;BME280;72430;47.456;19.016;2023-12-20T05:49:45;100201.38;;;-0.03;91.06
42297;BME280;72430;47.456;19.016;2023-12-20T05:52:47;100194.09;;;-0.17;91.01
42297;BME280;72430;47.456;19.016;2023-12-20T05:55:49;100181.75;;;-0.36;92.04
42297;BME280;72430;47.456;19.016;2023-12-20T05:58:51;100175.09;;;-0.45;92.52
42297;BME280;72430;47.456;19.016;2023-12-20T06:01:52;100178.03;;;-0.51;92.84
42297;BME280;72430;47.456;19.016;2023-12-20T06:04:54;100175.22;;;-0.48;92.99
42297;BME280;72430;47.456;19.016;2023-12-20T06:07:56;100169.16;;;-0.50;93.08
42297;BME280;72430;47.456;19.016;2023-12-20T06:11:03;100161.59;;;-0.38;92.80
42297;BME280;72430;47.456;19.016;2023-12-20T06:14:04;100165.66;;;-0.31;93.33
42297;BME280;72430;47.456;19.016;2023-12-20T06:17:06;100155.59;;;-0.61;93.55
42297;BME280;72430;47.456;19.016;2023-12-20T06:20:08;100156.50;;;-0.62;94.92
42297;BME280;72430;47.456;19.016;2023-12-20T06:23:11;100158.38;;;-0.64;94.52
42297;BME280;72430;47.456;19.016;2023-12-20T06:26:13;100157.56;;;-0.66;95.44
42297;BME280;72430;47.456;19.016;2023-12-20T06:29:15;100161.72;;;-0.42;94.88
42297;BME280;72430;47.456;19.016;2023-12-20T06:32:16;100153.53;;;-0.35;93.24
42297;BME280;72430;47.456;19.016;2023-12-20T06:35:18;100164.75;;;-0.49;94.05
42297;BME280;72430;47.456;19.016;2023-12-20T06:38:21;100168.50;;;-0.55;95.50
42297;BME280;72430;47.456;19.016;2023-12-20T06:41:23;100178.31;;;-0.38;94.01
42297;BME280;72430;47.456;19.016;2023-12-20T06:44:26;100179.31;;;-0.41;93.71
42297;BME280;72430;47.456;19.016;2023-12-20T06:47:27;100187.25;;;-0.41;93.14
42297;BME280;72430;47.456;19.016;2023-12-20T06:50:29;100209.19;;;-0.19;91.20
42297;BME280;72430;47.456;19.016;2023-12-20T06:53:31;100217.78;;;-0.33;91.97
42297;BME280;72430;47.456;19.016;2023-12-20T06:56:33;100224.69;;;-0.50;92.61
42297;BME280;72430;47.456;19.016;2023-12-20T06:59:40;100220.41;;;-0.52;93.55
42297;BME280;72430;47.456;19.016;2023-12-20T07:02:43;100214.41;;;-0.56;93.90
42297;BME280;72430;47.456;19.016;2023-12-20T07:05:45;100217.91;;;-0.36;93.34
42297;BME280;72430;47.456;19.016;2023-12-20T07:08:47;100220.56;;;-0.36;93.96
42297;BME280;72430;47.456;19.016;2023-12-20T07:11:49;100208.91;;;-0.32;91.88
42297;BME280;72430;47.456;19.016;2023-12-20T07:14:51;100213.31;;;-0.33;92.28
42297;BME280;72430;47.456;19.016;2023-12-20T07:17:53;100197.31;;;-0.30;92.01
42297;BME280;72430;47.456;19.016;2023-12-20T07:20:55;100205.75;;;-0.21;91.49
42297;BME280;72430;47.456;19.016;2023-12-20T07:23:57;100201.53;;;-0.45;93.57
42297;BME280;72430;47.456;19.016;2023-12-20T07:27:00;100205.69;;;-0.58;94.11
42297;BME280;72430;47.456;19.016;2023-12-20T07:30:02;100208.69;;;-0.66;94.17
42297;BME280;72430;47.456;19.016;2023-12-20T07:33:04;100204.22;;;-0.65;93.78
42297;BME280;72430;47.456;19.016;2023-12-20T07:36:07;100205.13;;;-0.46;94.48
42297;BME280;72430;47.456;19.016;2023-12-20T07:39:09;100213.41;;;-0.34;92.89
42297;BME280;72430;47.456;19.016;2023-12-20T07:42:11;100208.34;;;-0.58;95.37
42297;BME280;72430;47.456;19.016;2023-12-20T07:45:13;100208.56;;;-0.24;94.38
42297;BME280;72430;47.456;19.016;2023-12-20T07:48:16;100207.91;;;-0.10;92.71
42297;BME280;72430;47.456;19.016;2023-12-20T07:51:19;100206.25;;;-0.32;93.46
42297;BME280;72430;47.456;19.016;2023-12-20T07:54:22;100202.84;;;-0.34;93.93
42297;BME280;72430;47.456;19.016;2023-12-20T07:57:24;100192.75;;;-0.26;93.30
42297;BME280;72430;47.456;19.016;2023-12-20T08:00:26;100185.50;;;-0.42;94.59
42297;BME280;72430;47.456;19.016;2023-12-20T08:03:28;100181.16;;;-0.23;93.74
42297;BME280;72430;47.456;19.016;2023-12-20T08:06:30;100180.28;;;-0.24;94.00
42297;BME280;72430;47.456;19.016;2023-12-20T08:09:32;100175.78;;;-0.03;93.16
42297;BME280;72430;47.456;19.016;2023-12-20T08:12:35;100179.13;;;0.01;92.19
42297;BME280;72430;47.456;19.016;2023-12-20T08:15:37;100178.53;;;0.13;91.84
42297;BME280;72430;47.456;19.016;2023-12-20T08:18:39;100183.25;;;0.07;91.53
42297;BME280;72430;47.456;19.016;2023-12-20T08:21:41;100184.19;;;0.06;92.53
42297;BME280;72430;47.456;19.016;2023-12-20T08:24:43;100189.97;;;0.14;90.77
42297;BME280;72430;47.456;19.016;2023-12-20T08:27:45;100181.88;;;0.17;91.11
42297;BME280;72430;47.456;19.016;2023-12-20T08:30:48;100191.13;;;0.08;91.21
42297;BME280;72430;47.456;19.016;2023-12-20T08:33:50;100188.66;;;0.23;90.87
42297;BME280;72430;47.456;19.016;2023-12-20T08:36:52;100194.41;;;0.13;91.68
42297;BME280;72430;47.456;19.016;2023-12-20T08:39:54;100195.47;;;0.09;92.51
42297;BME280;72430;47.456;19.016;2023-12-20T08:42:55;100188.41;;;0.10;91.74
42297;BME280;72430;47.456;19.016;2023-12-20T08:45:57;100189.84;;;-0.02;92.89
42297;BME280;72430;47.456;19.016;2023-12-20T08:48:59;100187.81;;;0.22;92.82
42297;BME280;72430;47.456;19.016;2023-12-20T08:52:02;100195.47;;;0.46;91.98
42297;BME280;72430;47.456;19.016;2023-12-20T08:55:04;100187.28;;;0.51;91.34
42297;BME280;72430;47.456;19.016;2023-12-20T08:58:07;100196.59;;;0.23;92.28
42297;BME280;72430;47.456;19.016;2023-12-20T09:01:10;100189.81;;;0.17;91.85
42297;BME280;72430;47.456;19.016;2023-12-20T09:04:12;100197.69;;;0.19;91.42
42297;BME280;72430;47.456;19.016;2023-12-20T09:07:24;100195.13;;;0.17;93.00
42297;BME280;72430;47.456;19.016;2023-12-20T09:10:27;100196.53;;;0.24;92.43
42297;BME280;72430;47.456;19.016;2023-12-20T09:13:29;100192.44;;;0.54;91.25
42297;BME280;72430;47.456;19.016;2023-12-20T09:16:33;100189.22;;;0.65;89.66
42297;BME280;72430;47.456;19.016;2023-12-20T09:19:36;100183.00;;;0.66;90.54
42297;BME280;72430;47.456;19.016;2023-12-20T09:22:37;100181.16;;;0.50;90.70
42297;BME280;72430;47.456;19.016;2023-12-20T09:25:40;100182.47;;;0.42;91.33
42297;BME280;72430;47.456;19.016;2023-12-20T09:28:42;100176.38;;;0.57;91.18
42297;BME280;72430;47.456;19.016;2023-12-20T09:31:44;100170.38;;;0.71;91.00
42297;BME280;72430;47.456;19.016;2023-12-20T09:34:48;100155.84;;;0.78;91.37
42297;BME280;72430;47.456;19.016;2023-12-20T09:37:50;100146.97;;;0.79;91.24
42297;BME280;72430;47.456;19.016;2023-12-20T09:40:52;100145.16;;;0.98;91.27
42297;BME280;72430;47.456;19.016;2023-12-20T09:43:58;100149.59;;;0.97;90.50
42297;BME280;72430;47.456;19.016;2023-12-20T09:47:05;100135.03;;;0.88;91.25
42297;BME280;72430;47.456;19.016;2023-12-20T09:50:07;100123.91;;;1.15;90.86
42297;BME280;72430;47.456;19.016;2023-12-20T09:53:13;100126.75;;;1.28;90.85
42297;BME280;72430;47.456;19.016;2023-12-20T09:56:16;100125.13;;;1.26;90.07
42297;BME280;72430;47.456;19.016;2023-12-20T09:59:18;100091.75;;;1.54;90.52
42297;BME280;72430;47.456;19.016;2023-12-20T10:02:25;100106.97;;;1.50;88.81
42297;BME280;72430;47.456;19.016;2023-12-20T10:05:32;100112.53;;;1.45;90.35
42297;BME280;72430;47.456;19.016;2023-12-20T10:08:34;100102.94;;;1.59;89.23
42297;BME280;72430;47.456;19.016;2023-12-20T10:11:38;100104.50;;;1.63;89.59
42297;BME280;72430;47.456;19.016;2023-12-20T10:14:40;100109.19;;;1.74;88.16
42297;BME280;72430;47.456;19.016;2023-12-20T10:17:43;100093.03;;;1.63;89.18
42297;BME280;72430;47.456;19.016;2023-12-20T10:20:45;100098.09;;;1.98;88.96
42297;BME280;72430;47.456;19.016;2023-12-20T10:23:48;100071.84;;;2.38;89.18
42297;BME280;72430;47.456;19.016;2023-12-20T10:27:02;100057.94;;;2.78;86.71
42297;BME280;72430;47.456;19.016;2023-12-20T10:30:06;100058.00;;;3.48;87.76
42297;BME280;72430;47.456;19.016;2023-12-20T10:33:08;100042.56;;;4.86;84.58
42297;BME280;72430;47.456;19.016;2023-12-20T10:36:10;100042.78;;;5.58;77.73
42297;BME280;72430;47.456;19.016;2023-12-20T10:39:15;100031.78;;;6.45;75.29
42297;BME280;72430;47.456;19.016;2023-12-20T10:42:20;100029.94;;;7.70;71.87
42297;BME280;72430;47.456;19.016;2023-12-20T10:45:23;100027.00;;;8.06;71.51
42297;BME280;72430;47.456;19.016;2023-12-20T10:48:26;100018.75;;;9.44;66.99
42297;BME280;72430;47.456;19.016;2023-12-20T10:51:34;100022.59;;;9.10;66.22
42297;BME280;72430;47.456;19.016;2023-12-20T10:54:36;100019.69;;;10.41;65.78
42297;BME280;72430;47.456;19.016;2023-12-20T10:57:39;99999.84;;;10.90;58.15
42297;BME280;72430;47.456;19.016;2023-12-20T11:00:43;100011.28;;;11.48;58.97
42297;BME280;72430;47.456;19.016;2023-12-20T11:03:54;100007.72;;;12.39;55.37
42297;BME280;72430;47.456;19.016;2023-12-20T11:07:10;99994.81;;;12.06;56.81
42297;BME280;72430;47.456;19.016;2023-12-20T11:10:24;99979.84;;;13.92;53.67
42297;BME280;72430;47.456;19.016;2023-12-20T11:13:36;99972.72;;;14.16;49.95
42297;BME280;72430;47.456;19.016;2023-12-20T11:16:41;99954.75;;;14.88;51.75
42297;BME280;72430;47.456;19.016;2023-12-20T11:22:57;99943.25;;;15.96;44.96
42297;BME280;72430;47.456;19.016;2023-12-20T11:26:02;99935.72;;;16.52;49.17
42297;BME280;72430;47.456;19.016;2023-12-20T11:29:33;99918.19;;;15.63;44.52
42297;BME280;72430;47.456;19.016;2023-12-20T11:32:36;99912.09;;;15.14;44.75
42297;BME280;72430;47.456;19.016;2023-12-20T11:35:39;99900.13;;;17.14;46.58
42297;BME280;72430;47.456;19.016;2023-12-20T11:38:56;99908.09;;;15.33;41.53
42297;BME280;72430;47.456;19.016;2023-12-20T11:42:04;99906.56;;;16.61;42.37
42297;BME280;72430;47.456;19.016;2023-12-20T11:45:12;99916.59;;;16.45;42.70
42297;BME280;72430;47.456;19.016;2023-12-20T11:48:17;99912.44;;;17.31;40.05
42297;BME280;72430;47.456;19.016;2023-12-20T11:51:20;99899.63;;;17.76;42.85
42297;BME280;72430;47.456;19.016;2023-12-20T11:54:22;99898.97;;;18.24;40.12
42297;BME280;72430;47.456;19.016;2023-12-20T11:57:25;99899.09;;;19.00;39.64
42297;BME280;72430;47.456;19.016;2023-12-20T12:00:28;99883.91;;;18.77;39.56
42297;BME280;72430;47.456;19.016;2023-12-20T12:03:30;99894.50;;;18.16;36.93
42297;BME280;72430;47.456;19.016;2023-12-20T12:06:33;99891.84;;;17.73;39.34
42297;BME280;72430;47.456;19.016;2023-12-20T12:09:35;99898.16;;;16.26;41.47
42297;BME280;72430;47.456;19.016;2023-12-20T12:12:37;99887.94;;;17.31;40.55
42297;BME280;72430;47.456;19.016;2023-12-20T12:15:39;99877.81;;;17.47;41.91
42297;BME280;72430;47.456;19.016;2023-12-20T12:18:41;99874.59;;;19.13;39.10
42297;BME280;72430;47.456;19.016;2023-12-20T12:21:43;99879.41;;;16.83;41.35
42297;BME280;72430;47.456;19.016;2023-12-20T12:24:46;99905.00;;;15.36;42.63
42297;BME280;72430;47.456;19.016;2023-12-20T12:27:51;99903.25;;;15.20;44.78
42297;BME280;72430;47.456;19.016;2023-12-20T12:30:57;99897.44;;;15.55;44.51
42297;BME280;72430;47.456;19.016;2023-12-20T12:34:01;99907.78;;;15.05;43.99
42297;BME280;72430;47.456;19.016;2023-12-20T12:37:06;99898.00;;;14.55;45.32
42297;BME280;72430;47.456;19.016;2023-12-20T12:40:14;99900.03;;;13.88;46.32
42297;BME280;72430;47.456;19.016;2023-12-20T12:43:16;99901.16;;;13.19;47.13
42297;BME280;72430;47.456;19.016;2023-12-20T12:46:18;99911.50;;;12.38;48.88
42297;BME280;72430;47.456;19.016;2023-12-20T12:49:20;99922.31;;;12.11;48.65
42297;BME280;72430;47.456;19.016;2023-12-20T12:52:25;99915.00;;;11.77;50.10
42297;BME280;72430;47.456;19.016;2023-12-20T12:55:28;99907.88;;;11.49;50.30
42297;BME280;72430;47.456;19.016;2023-12-20T12:58:30;99914.25;;;11.30;50.85
42297;BME280;72430;47.456;19.016;2023-12-20T13:01:32;99914.44;;;10.82;51.97
42297;BME280;72430;47.456;19.016;2023-12-20T13:04:34;99909.47;;;10.87;51.78
42297;BME280;72430;47.456;19.016;2023-12-20T13:07:36;99908.91;;;10.56;53.50
42297;BME280;72430;47.456;19.016;2023-12-20T13:10:39;99909.00;;;10.26;53.80
42297;BME280;72430;47.456;19.016;2023-12-20T13:13:41;99908.53;;;9.83;55.27
42297;BME280;72430;47.456;19.016;2023-12-20T13:16:43;99913.06;;;9.92;55.34
42297;BME280;72430;47.456;19.016;2023-12-20T13:19:46;99911.97;;;9.75;55.57
42297;BME280;72430;47.456;19.016;2023-12-20T13:22:48;99895.09;;;9.83;54.24
42297;BME280;72430;47.456;19.016;2023-12-20T13:25:50;99892.28;;;9.75;56.03
42297;BME280;72430;47.456;19.016;2023-12-20T13:28:54;99898.09;;;9.70;56.20
42297;BME280;72430;47.456;19.016;2023-12-20T13:31:56;99888.78;;;9.54;55.28
42297;BME280;72430;47.456;19.016;2023-12-20T13:34:59;99890.78;;;9.52;57.09
42297;BME280;72430;47.456;19.016;2023-12-20T13:38:01;99890.91;;;9.31;56.66
42297;BME280;72430;47.456;19.016;2023-12-20T13:41:03;99906.72;;;9.44;56.25
42297;BME280;72430;47.456;19.016;2023-12-20T13:44:06;99901.38;;;9.34;57.50
42297;BME280;72430;47.456;19.016;2023-12-20T13:47:08;99901.50;;;9.33;56.78
42297;BME280;72430;47.456;19.016;2023-12-20T13:50:10;99906.75;;;9.15;58.10
42297;BME280;72430;47.456;19.016;2023-12-20T13:53:12;99895.41;;;9.01;58.27
42297;BME280;72430;47.456;19.016;2023-12-20T13:56:15;99901.63;;;9.02;58.59
42297;BME280;72430;47.456;19.016;2023-12-20T13:59:17;99897.69;;;8.96;57.98
42297;BME280;72430;47.456;19.016;2023-12-20T14:02:18;99902.75;;;8.89;58.78
42297;BME280;72430;47.456;19.016;2023-12-20T14:05:20;99890.31;;;8.88;59.38
42297;BME280;72430;47.456;19.016;2023-12-20T14:08:27;99914.19;;;9.01;58.66
42297;BME280;72430;47.456;19.016;2023-12-20T14:11:29;99917.94;;;8.69;59.20
42297;BME280;72430;47.456;19.016;2023-12-20T14:14:30;99924.38;;;8.25;60.47
42297;BME280;72430;47.456;19.016;2023-12-20T14:17:32;99924.16;;;7.64;63.37
42297;BME280;72430;47.456;19.016;2023-12-20T14:20:34;99930.50;;;7.85;62.37
42297;BME280;72430;47.456;19.016;2023-12-20T14:23:36;99939.09;;;7.46;63.17
42297;BME280;72430;47.456;19.016;2023-12-20T14:26:38;99920.03;;;6.95;64.47
42297;BME280;72430;47.456;19.016;2023-12-20T14:29:40;99928.00;;;6.51;66.61
42297;BME280;72430;47.456;19.016;2023-12-20T14:32:42;99923.75;;;6.48;66.85
42297;BME280;72430;47.456;19.016;2023-12-20T14:35:44;99925.59;;;6.36;67.04
42297;BME280;72430;47.456;19.016;2023-12-20T14:38:46;99921.31;;;6.34;67.50
42297;BME280;72430;47.456;19.016;2023-12-20T14:41:48;99933.34;;;6.28;67.76
42297;BME280;72430;47.456;19.016;2023-12-20T14:44:50;99938.94;;;6.13;68.43
42297;BME280;72430;47.456;19.016;2023-12-20T14:47:53;99937.22;;;6.47;66.65
42297;BME280;72430;47.456;19.016;2023-12-20T14:50:55;99931.75;;;6.48;66.96
42297;BME280;72430;47.456;19.016;2023-12-20T14:53:57;99933.81;;;6.67;66.43
42297;BME280;72430;47.456;19.016;2023-12-20T14:56:59;99952.06;;;6.62;67.43
42297;BME280;72430;47.456;19.016;2023-12-20T15:00:07;99943.81;;;6.54;67.37
42297;BME280;72430;47.456;19.016;2023-12-20T15:03:09;99962.28;;;6.57;67.41
42297;BME280;72430;47.456;19.016;2023-12-20T15:06:11;99957.28;;;6.52;66.97
42297;BME280;72430;47.456;19.016;2023-12-20T15:09:13;99976.13;;;6.51;67.25
42297;BME280;72430;47.456;19.016;2023-12-20T15:12:15;99963.84;;;6.60;67.39
42297;BME280;72430;47.456;19.016;2023-12-20T15:15:17;99970.66;;;6.64;67.36
42297;BME280;72430;47.456;19.016;2023-12-20T15:18:19;99970.56;;;6.54;67.11
42297;BME280;72430;47.456;19.016;2023-12-20T15:21:21;99981.09;;;6.55;67.02
42297;BME280;72430;47.456;19.016;2023-12-20T15:24:31;99987.81;;;6.61;68.15
42297;BME280;72430;47.456;19.016;2023-12-20T15:27:39;99986.81;;;6.85;67.52
42297;BME280;72430;47.456;19.016;2023-12-20T15:30:41;99985.97;;;6.73;68.80
42297;BME280;72430;47.456;19.016;2023-12-20T15:33:43;99990.59;;;6.82;67.76
42297;BME280;72430;47.456;19.016;2023-12-20T15:36:45;99977.81;;;6.97;67.39
42297;BME280;72430;47.456;19.016;2023-12-20T15:39:47;99990.69;;;7.04;67.18
42297;BME280;72430;47.456;19.016;2023-12-20T15:42:49;99995.22;;;6.92;67.51
42297;BME280;72430;47.456;19.016;2023-12-20T15:45:51;99994.00;;;6.84;68.08
42297;BME280;72430;47.456;19.016;2023-12-20T15:48:53;99988.13;;;7.02;67.55
42297;BME280;72430;47.456;19.016;2023-12-20T15:51:55;99985.84;;;6.97;66.90
42297;BME280;72430;47.456;19.016;2023-12-20T15:54:57;99998.13;;;7.00;67.16
42297;BME280;72430;47.456;19.016;2023-12-20T15:57:59;99995.56;;;6.98;68.36